Naha, Japan
Current Conditions -  °F | °C
As of 7:30 PM on Thursday 18 Dec 2014 (Local Time) from ROAH Reporting Station
Broken Clouds Broken Clouds  
Wind Chill: 61°   Ceiling: 7000
Heat Index: 61°   Visibility: 6mi
Dew Point: 45°   Wind: 10mph
Humidity: 55%   Direction: 50°NE
Pressure: 30.33"   Gusts: NA
Location:  26.21°N, 127.7°E
Report Text: ROAH 181030Z 05009KT 9999 FEW025 BKN070 16/07 Q1027 RMK 1CU025 6AC070 A3035
Loading
Personal Weather Stations






























Interactive Weather Map New forecast layout! Learn more

10-Day Weather Forecast

Advertisements
Track Severe Weather on mobile